createdAt,value
2018-09-13T00:01:00.129Z,11.40
2018-09-13T00:02:04.882Z,11.30
2018-09-13T00:03:09.632Z,12.20
2018-09-13T00:04:14.319Z,11.48
2018-09-13T00:05:19.986Z,12.75
2018-09-13T00:06:24.696Z,12.10
2018-09-13T00:07:29.392Z,12.20
2018-09-13T00:08:34.094Z,12.40
2018-09-13T00:09:38.789Z,13.50
2018-09-13T00:10:43.517Z,11.48
2018-09-13T00:11:48.288Z,12.10
2018-09-13T00:12:53.016Z,10.90
2018-09-13T00:13:59.717Z,11.17
2018-09-13T00:15:05.259Z,12.18
2018-09-13T00:16:10.608Z,11.60
2018-09-13T00:17:16.171Z,10.82
2018-09-13T00:18:21.023Z,12.33
2018-09-13T00:19:25.946Z,12.70
2018-09-13T00:20:30.848Z,12.13
2018-09-13T00:21:35.681Z,11.20
2018-09-13T00:22:40.409Z,12.40
2018-09-13T00:23:45.209Z,11.70
2018-09-13T00:24:50.153Z,10.83
2018-09-13T00:25:54.858Z,10.27
2018-09-13T00:26:59.889Z,10.80
2018-09-13T00:28:04.908Z,11.08
2018-09-13T00:29:09.684Z,11.05
2018-09-13T00:30:14.387Z,11.80
2018-09-13T00:31:19.099Z,11.55
2018-09-13T00:32:23.842Z,10.70
2018-09-13T00:33:28.529Z,9.97
2018-09-13T00:34:33.264Z,11.77
2018-09-13T00:35:38.021Z,11.50
2018-09-13T00:36:42.940Z,11.22
2018-09-13T00:37:47.766Z,10.13
2018-09-13T00:38:52.563Z,11.23
2018-09-13T00:39:57.293Z,10.57
2018-09-13T00:41:07.573Z,12.13
2018-09-13T00:42:15.390Z,10.40
2018-09-13T00:43:20.153Z,10.48
2018-09-13T00:44:36.980Z,11.17
2018-09-13T00:45:42.591Z,10.10
2018-09-13T00:46:48.557Z,10.30
2018-09-13T00:47:53.247Z,10.13
2018-09-13T00:49:06.377Z,9.50
2018-09-13T00:50:11.355Z,9.93
2018-09-13T00:51:19.242Z,10.85
2018-09-13T00:52:24.564Z,10.97
2018-09-13T00:53:29.360Z,11.37
2018-09-13T00:54:34.992Z,11.17
2018-09-13T00:55:39.795Z,11.13
2018-09-13T00:56:44.636Z,9.97
2018-09-13T00:57:49.404Z,12.33
2018-09-13T00:58:54.408Z,9.87
2018-09-13T00:59:59.179Z,11.07
2018-09-13T01:01:04.752Z,10.88
2018-09-13T01:02:09.477Z,10.63
2018-09-13T01:03:14.229Z,10.80
2018-09-13T01:04:19.002Z,10.95
2018-09-13T01:05:23.832Z,10.85
2018-09-13T01:06:28.594Z,11.73
2018-09-13T01:07:33.349Z,11.70
2018-09-13T01:08:38.185Z,10.97
2018-09-13T01:09:42.944Z,10.70
2018-09-13T01:10:47.734Z,10.78
2018-09-13T01:11:52.589Z,11.60
2018-09-13T01:12:57.303Z,11.50
2018-09-13T01:14:02.004Z,10.90
2018-09-13T01:15:06.797Z,11.93
2018-09-13T01:16:11.485Z,11.48
2018-09-13T01:17:16.901Z,10.10
2018-09-13T01:18:21.710Z,10.50
2018-09-13T01:19:26.464Z,10.60
2018-09-13T01:20:31.201Z,10.37
2018-09-13T01:21:35.933Z,10.23
2018-09-13T01:22:41.439Z,10.23
2018-09-13T01:23:46.266Z,10.57
2018-09-13T01:24:54.844Z,10.43
2018-09-13T01:25:59.886Z,10.37
2018-09-13T01:27:05.147Z,9.98
2018-09-13T01:28:09.948Z,10.30
2018-09-13T01:29:14.682Z,10.65
2018-09-13T01:30:19.436Z,9.55
2018-09-13T01:31:24.741Z,10.70
2018-09-13T01:32:29.547Z,9.98
2018-09-13T01:33:34.407Z,10.90
2018-09-13T01:34:39.160Z,10.30
2018-09-13T01:35:44.281Z,10.43
2018-09-13T01:36:49.186Z,10.77
2018-09-13T01:37:54.983Z,11.30
2018-09-13T01:38:59.794Z,10.18
2018-09-13T01:40:05.584Z,10.80
2018-09-13T01:41:10.395Z,11.15
2018-09-13T01:42:15.097Z,12.15
2018-09-13T01:43:19.892Z,12.33
2018-09-13T01:44:25.384Z,12.63
2018-09-13T01:45:30.768Z,12.97
2018-09-13T01:46:36.305Z,11.73
2018-09-13T01:47:41.206Z,12.17
2018-09-13T01:48:45.904Z,14.70
2018-09-13T01:49:50.678Z,14.43
2018-09-13T01:50:55.869Z,15.20
2018-09-13T01:52:01.229Z,13.37
2018-09-13T01:53:06.246Z,14.47
2018-09-13T01:54:11.169Z,13.28
2018-09-13T01:55:16.965Z,14.78
2018-09-13T01:56:21.647Z,12.43
2018-09-13T01:57:26.457Z,13.97
2018-09-13T01:58:31.134Z,14.63
2018-09-13T01:59:35.871Z,14.13
2018-09-13T02:00:40.768Z,14.93
2018-09-13T02:01:45.527Z,16.03
2018-09-13T02:02:50.228Z,15.37
2018-09-13T02:03:55.088Z,15.73
2018-09-13T02:04:59.910Z,15.53
2018-09-13T02:06:05.061Z,15.68
2018-09-13T02:07:09.770Z,14.95
2018-09-13T02:08:14.481Z,14.75
2018-09-13T02:09:19.256Z,14.90
2018-09-13T02:10:23.931Z,15.98
2018-09-13T02:11:28.672Z,14.27
2018-09-13T02:12:33.503Z,14.37
2018-09-13T02:13:38.296Z,14.40
2018-09-13T02:14:43.008Z,14.07
2018-09-13T02:15:47.826Z,13.63
2018-09-13T02:16:52.711Z,14.45
2018-09-13T02:17:57.382Z,12.90
2018-09-13T02:19:02.128Z,13.27
2018-09-13T02:20:06.951Z,13.32
2018-09-13T02:21:11.704Z,13.03
2018-09-13T02:22:16.500Z,14.40
2018-09-13T02:23:21.236Z,13.48
2018-09-13T02:24:26.754Z,13.00
2018-09-13T02:25:31.572Z,12.70
2018-09-13T02:26:36.385Z,12.83
2018-09-13T02:27:41.128Z,13.20
2018-09-13T02:28:46.046Z,11.80
2018-09-13T02:29:50.849Z,12.23
2018-09-13T02:30:55.548Z,11.53
2018-09-13T02:32:01.606Z,11.50
2018-09-13T02:33:06.427Z,12.25
2018-09-13T02:34:11.240Z,11.43
2018-09-13T02:35:15.956Z,12.82
2018-09-13T02:36:20.702Z,12.30
2018-09-13T02:37:25.645Z,11.37
2018-09-13T02:38:30.449Z,11.27
2018-09-13T02:39:35.400Z,11.23
2018-09-13T02:40:40.584Z,11.10
2018-09-13T02:41:45.431Z,10.60
2018-09-13T02:42:50.847Z,10.70
2018-09-13T02:43:55.661Z,10.43
2018-09-13T02:45:00.349Z,10.50
2018-09-13T02:46:05.201Z,10.18
2018-09-13T02:47:09.895Z,9.45
2018-09-13T02:48:14.644Z,9.45
2018-09-13T02:49:19.658Z,9.53
2018-09-13T02:50:24.389Z,9.63
2018-09-13T02:51:29.097Z,9.50
2018-09-13T02:52:33.878Z,9.17
2018-09-13T02:53:38.770Z,8.80
2018-09-13T02:54:43.559Z,9.33
2018-09-13T02:55:48.479Z,8.57
2018-09-13T02:56:53.185Z,8.73
2018-09-13T02:57:57.884Z,8.97
2018-09-13T02:59:02.590Z,8.13
2018-09-13T03:00:07.913Z,8.95
2018-09-13T03:01:12.750Z,9.55
2018-09-13T03:02:17.470Z,9.30
2018-09-13T03:03:22.211Z,8.88
2018-09-13T03:04:26.868Z,8.50
2018-09-13T03:05:32.174Z,8.47
2018-09-13T03:06:36.894Z,8.67
2018-09-13T03:07:41.599Z,9.65
2018-09-13T03:08:46.317Z,9.53
2018-09-13T03:09:51.091Z,9.77
2018-09-13T03:10:55.767Z,9.30
2018-09-13T03:12:00.946Z,9.10
2018-09-13T03:13:05.671Z,9.08
2018-09-13T03:14:10.440Z,9.40
2018-09-13T03:15:15.256Z,9.40
2018-09-13T03:16:20.635Z,8.68
2018-09-13T03:17:25.345Z,8.47
2018-09-13T03:18:30.070Z,7.90
2018-09-13T03:19:34.832Z,8.63
2018-09-13T03:20:39.531Z,8.23
2018-09-13T03:21:44.257Z,8.23
2018-09-13T03:22:48.976Z,8.87
2018-09-13T03:23:53.662Z,9.17
2018-09-13T03:24:58.405Z,9.93
2018-09-13T03:26:03.101Z,8.03
2018-09-13T03:27:07.870Z,8.90
2018-09-13T03:28:12.622Z,8.75
2018-09-13T03:29:17.401Z,9.20
2018-09-13T03:30:22.181Z,8.38
2018-09-13T03:31:27.116Z,8.43
2018-09-13T03:32:32.160Z,8.40
2018-09-13T03:33:37.527Z,8.75
2018-09-13T03:34:43.030Z,8.60
2018-09-13T03:35:47.932Z,7.80
2018-09-13T03:36:52.634Z,9.40
2018-09-13T03:37:57.427Z,8.43
2018-09-13T03:39:02.356Z,8.40
2018-09-13T03:40:07.158Z,8.85
2018-09-13T03:41:11.915Z,7.83
2018-09-13T03:42:17.454Z,9.08
2018-09-13T03:43:22.149Z,9.05
2018-09-13T03:44:26.906Z,9.07
2018-09-13T03:45:31.995Z,8.80
2018-09-13T03:46:37.080Z,8.17
2018-09-13T03:47:41.773Z,9.10
2018-09-13T03:48:46.553Z,9.78
2018-09-13T03:49:51.308Z,9.03
2018-09-13T03:50:56.026Z,9.17
2018-09-13T03:52:00.717Z,9.77
2018-09-13T03:53:05.576Z,10.93
2018-09-13T03:54:10.386Z,10.85
2018-09-13T03:55:15.097Z,10.18
2018-09-13T03:56:19.848Z,11.83
2018-09-13T03:57:24.640Z,11.10
2018-09-13T03:58:29.414Z,12.00
2018-09-13T03:59:34.441Z,12.17
2018-09-13T04:00:39.231Z,12.93
2018-09-13T04:01:44.038Z,12.53
2018-09-13T04:02:48.777Z,11.93
2018-09-13T04:03:53.499Z,12.23
2018-09-13T04:04:58.317Z,12.27
2018-09-13T04:06:03.078Z,11.83
2018-09-13T04:07:07.924Z,12.82
2018-09-13T04:08:12.719Z,13.58
2018-09-13T04:09:18.112Z,13.38
2018-09-13T04:10:22.802Z,13.05
2018-09-13T04:11:27.492Z,12.90
2018-09-13T04:12:32.697Z,13.20
2018-09-13T04:13:37.625Z,12.67
2018-09-13T04:14:42.370Z,13.53
2018-09-13T04:15:47.086Z,12.73
2018-09-13T04:16:51.828Z,13.55
2018-09-13T04:17:56.863Z,12.83
2018-09-13T04:19:01.577Z,13.53
2018-09-13T04:20:06.444Z,14.13
2018-09-13T04:21:11.252Z,12.93
2018-09-13T04:22:16.758Z,13.68
2018-09-13T04:23:21.455Z,13.88
2018-09-13T04:24:26.314Z,14.30
2018-09-13T04:25:31.048Z,14.10
2018-09-13T04:26:35.815Z,14.27
2018-09-13T04:27:40.678Z,13.83
2018-09-13T04:28:45.832Z,14.98
2018-09-13T04:29:50.564Z,14.75
2018-09-13T04:30:55.577Z,14.47
2018-09-13T04:32:00.740Z,15.43
2018-09-13T04:33:05.544Z,15.88
2018-09-13T04:34:10.428Z,15.50
2018-09-13T04:35:15.201Z,14.63
2018-09-13T04:36:20.001Z,15.40
2018-09-13T04:37:24.713Z,15.20
2018-09-13T04:38:30.156Z,14.67
2018-09-13T04:39:34.871Z,14.43
2018-09-13T04:40:39.601Z,15.67
2018-09-13T04:41:44.412Z,14.63
2018-09-13T04:42:49.139Z,15.23
2018-09-13T04:43:54.213Z,15.43
2018-09-13T04:44:58.984Z,15.30
2018-09-13T04:46:03.912Z,15.18
2018-09-13T04:47:09.384Z,16.87
2018-09-13T04:48:14.160Z,15.75
2018-09-13T04:49:19.370Z,15.88
2018-09-13T04:50:24.145Z,16.15
2018-09-13T04:51:28.861Z,16.12
2018-09-13T04:52:33.596Z,18.07
2018-09-13T04:53:38.337Z,16.13
2018-09-13T04:54:43.024Z,17.13
2018-09-13T04:55:47.801Z,17.52
2018-09-13T04:56:52.625Z,15.87
2018-09-13T04:57:58.259Z,17.43
2018-09-13T04:59:03.108Z,18.13
2018-09-13T05:00:07.988Z,17.32
2018-09-13T05:01:12.958Z,17.50
2018-09-13T05:02:17.697Z,18.40
2018-09-13T05:03:22.413Z,16.75
2018-09-13T05:04:27.180Z,18.00
2018-09-13T05:05:32.108Z,16.80
2018-09-13T05:06:37.274Z,17.77
2018-09-13T05:07:41.868Z,17.33
2018-09-13T05:08:47.078Z,16.53
2018-09-13T05:09:51.834Z,16.93
2018-09-13T05:10:56.611Z,15.30
2018-09-13T05:12:01.322Z,15.70
2018-09-13T05:13:06.396Z,16.35
2018-09-13T05:14:11.147Z,16.80
2018-09-13T05:15:15.915Z,16.48
2018-09-13T05:16:20.808Z,15.25
2018-09-13T05:17:25.535Z,15.80
2018-09-13T05:18:30.305Z,16.20
2018-09-13T05:19:35.133Z,16.13
2018-09-13T05:20:40.007Z,15.83
2018-09-13T05:21:44.902Z,16.30
2018-09-13T05:22:49.725Z,15.20
2018-09-13T05:23:54.504Z,16.27
2018-09-13T05:24:59.375Z,15.70
2018-09-13T05:26:04.874Z,16.70
2018-09-13T05:27:09.604Z,17.77
2018-09-13T05:28:14.365Z,16.93
2018-09-13T05:29:19.150Z,16.73
2018-09-13T05:30:24.747Z,15.33
2018-09-13T05:31:29.520Z,16.73
2018-09-13T05:32:34.203Z,15.90
2018-09-13T05:33:39.000Z,15.53
2018-09-13T05:34:43.872Z,16.42
2018-09-13T05:35:48.641Z,16.70
2018-09-13T05:36:53.445Z,15.70
2018-09-13T05:37:58.152Z,16.37
2018-09-13T05:39:02.988Z,15.00
2018-09-13T05:40:07.855Z,16.32
2018-09-13T05:41:13.571Z,16.75
2018-09-13T05:42:18.331Z,17.37
2018-09-13T05:43:23.136Z,16.35
2018-09-13T05:44:28.040Z,15.35
2018-09-13T05:45:32.831Z,16.37
2018-09-13T05:46:37.600Z,17.23
2018-09-13T05:47:42.495Z,17.27
2018-09-13T05:48:47.213Z,16.37
2018-09-13T05:49:51.943Z,17.67
2018-09-13T05:50:56.718Z,18.23
2018-09-13T05:52:01.496Z,17.47
2018-09-13T05:53:06.371Z,16.57
2018-09-13T05:54:11.113Z,15.93
2018-09-13T05:55:16.500Z,16.85
2018-09-13T05:56:21.250Z,18.00
2018-09-13T05:57:25.957Z,17.00
2018-09-13T05:58:30.720Z,16.52
2018-09-13T05:59:36.232Z,16.37
2018-09-13T06:00:40.974Z,15.70
2018-09-13T06:01:46.450Z,16.00
2018-09-13T06:02:51.143Z,16.37
2018-09-13T06:03:56.107Z,17.17
2018-09-13T06:05:00.815Z,15.67
2018-09-13T06:06:05.592Z,15.90
2018-09-13T06:07:10.320Z,15.23
2018-09-13T06:08:15.112Z,16.65
2018-09-13T06:09:26.714Z,15.55
2018-09-13T06:10:32.404Z,15.53
2018-09-13T06:11:37.172Z,13.90
2018-09-13T06:12:41.880Z,15.68
2018-09-13T06:13:46.641Z,15.03
2018-09-13T06:14:51.463Z,15.13
2018-09-13T06:15:56.196Z,15.27
2018-09-13T06:17:00.955Z,13.57
2018-09-13T06:18:05.871Z,15.43
2018-09-13T06:19:10.695Z,14.85
2018-09-13T06:20:15.449Z,15.53
2018-09-13T06:21:20.192Z,15.25
2018-09-13T06:22:24.936Z,15.72
2018-09-13T06:23:29.866Z,16.10
2018-09-13T06:24:34.585Z,14.80
2018-09-13T06:25:39.301Z,15.47
2018-09-13T06:26:44.125Z,16.17
2018-09-13T06:27:48.841Z,15.75
2018-09-13T06:28:53.654Z,16.27
2018-09-13T06:29:58.407Z,15.00
2018-09-13T06:31:03.575Z,16.03
2018-09-13T06:32:08.596Z,15.03
2018-09-13T06:33:13.728Z,16.35
2018-09-13T06:34:18.493Z,15.43
2018-09-13T06:35:23.328Z,15.60
2018-09-13T06:36:28.285Z,15.00
2018-09-13T06:37:32.969Z,15.50
2018-09-13T06:38:37.679Z,14.17
2018-09-13T06:39:43.109Z,15.43
2018-09-13T06:40:47.833Z,15.40
2018-09-13T06:41:52.590Z,15.45
2018-09-13T06:42:57.360Z,14.00
2018-09-13T06:44:02.075Z,14.13
2018-09-13T06:45:07.348Z,14.50
2018-09-13T06:46:12.083Z,14.20
2018-09-13T06:47:17.505Z,14.43
2018-09-13T06:48:22.215Z,13.75
2018-09-13T06:49:27.047Z,15.33
2018-09-13T06:50:31.804Z,13.50
2018-09-13T06:51:36.517Z,12.80
2018-09-13T06:52:41.582Z,12.97
2018-09-13T06:53:46.397Z,13.23
2018-09-13T06:54:51.206Z,12.90
2018-09-13T06:55:55.925Z,13.28
2018-09-13T06:57:01.419Z,13.63
2018-09-13T06:58:06.218Z,13.28
2018-09-13T06:59:10.929Z,14.05
2018-09-13T07:00:22.682Z,12.47
2018-09-13T07:01:27.431Z,13.60
2018-09-13T07:02:32.326Z,11.20
2018-09-13T07:03:37.040Z,11.57
2018-09-13T07:04:41.820Z,11.27
2018-09-13T07:05:46.578Z,11.10
2018-09-13T07:06:51.274Z,11.73
2018-09-13T07:07:56.033Z,11.40
2018-09-13T07:09:00.912Z,11.37
2018-09-13T07:10:05.694Z,12.13
2018-09-13T07:11:10.504Z,11.12
2018-09-13T07:12:15.276Z,10.95
2018-09-13T07:13:20.075Z,10.20
2018-09-13T07:14:24.944Z,12.40
2018-09-13T07:15:29.719Z,11.10
2018-09-13T07:16:34.430Z,9.85
2018-09-13T07:17:39.168Z,9.73
2018-09-13T07:18:44.032Z,9.37
2018-09-13T07:19:48.818Z,9.30
2018-09-13T07:20:53.542Z,13.35
2018-09-13T07:21:58.296Z,12.10
2018-09-13T07:23:03.896Z,10.00
2018-09-13T07:24:08.747Z,12.65
2018-09-13T07:25:13.656Z,9.03
2018-09-13T07:26:18.492Z,9.23
2018-09-13T07:27:23.200Z,10.80
2018-09-13T07:28:28.211Z,9.37
2018-09-13T07:29:32.929Z,11.63
2018-09-13T07:30:37.678Z,10.35
2018-09-13T07:31:42.498Z,11.47
2018-09-13T07:32:47.349Z,11.17
2018-09-13T07:33:52.119Z,10.40
2018-09-13T07:34:56.822Z,9.45
2018-09-13T07:36:02.091Z,9.60
2018-09-13T07:37:06.830Z,11.50
2018-09-13T07:38:11.603Z,9.50
2018-09-13T07:39:39.718Z,9.65
2018-09-13T07:40:44.439Z,12.67
2018-09-13T07:41:49.551Z,10.73
2018-09-13T07:42:54.422Z,8.63
2018-09-13T07:43:59.388Z,8.17
2018-09-13T07:45:04.924Z,10.25
2018-09-13T07:46:09.674Z,9.00
2018-09-13T07:47:14.566Z,14.38
2018-09-13T07:48:19.432Z,11.15
2018-09-13T07:49:24.279Z,9.60
2018-09-13T07:50:28.949Z,8.63
2018-09-13T07:51:33.718Z,8.90
2018-09-13T07:52:39.115Z,12.15
2018-09-13T07:53:43.967Z,9.77
2018-09-13T07:54:49.247Z,9.37
2018-09-13T07:55:54.046Z,7.97
2018-09-13T07:56:58.768Z,9.30
2018-09-13T07:58:04.656Z,8.50
2018-09-13T07:59:09.399Z,11.03
2018-09-13T08:00:14.152Z,9.95
2018-09-13T08:01:19.416Z,8.13
2018-09-13T08:02:24.291Z,10.53
2018-09-13T08:03:29.140Z,8.70
2018-09-13T08:04:33.860Z,9.83
2018-09-13T08:05:38.676Z,10.07
2018-09-13T08:06:43.363Z,8.47
2018-09-13T08:07:49.204Z,8.00
2018-09-13T08:08:54.038Z,7.83
2018-09-13T08:09:59.724Z,7.78
2018-09-13T08:11:04.936Z,8.38
2018-09-13T08:12:09.781Z,7.83
2018-09-13T08:13:14.390Z,9.93
2018-09-13T08:14:19.278Z,8.70
2018-09-13T08:15:24.174Z,8.28
2018-09-13T08:16:28.907Z,7.73
2018-09-13T08:17:33.616Z,8.37
2018-09-13T08:18:38.377Z,8.30
2018-09-13T08:19:43.207Z,8.60
2018-09-13T08:20:47.965Z,10.63
2018-09-13T08:21:53.412Z,11.50
2018-09-13T08:22:58.147Z,11.77
2018-09-13T08:24:02.883Z,8.78
2018-09-13T08:25:07.829Z,10.68
2018-09-13T08:26:17.123Z,8.78
2018-09-13T08:27:21.979Z,9.48
2018-09-13T08:28:26.741Z,8.50
2018-09-13T08:29:31.589Z,9.57
2018-09-13T08:30:36.377Z,9.83
2018-09-13T08:31:41.208Z,10.10
2018-09-13T08:32:46.070Z,9.33
2018-09-13T08:33:51.644Z,9.50
2018-09-13T08:34:57.161Z,9.60
2018-09-13T08:36:01.817Z,11.37
2018-09-13T08:37:06.642Z,11.63
2018-09-13T08:38:11.374Z,11.05
2018-09-13T08:39:16.111Z,9.58
2018-09-13T08:40:20.906Z,10.88
2018-09-13T08:41:25.668Z,9.73
2018-09-13T08:42:30.386Z,8.50
2018-09-13T08:43:35.226Z,11.63
2018-09-13T08:44:39.970Z,11.83
2018-09-13T08:45:44.688Z,8.40
2018-09-13T08:46:49.458Z,9.90
2018-09-13T08:47:54.184Z,9.37
2018-09-13T08:49:01.057Z,9.40
2018-09-13T08:50:05.861Z,8.53
2018-09-13T08:51:10.600Z,8.40
2018-09-13T08:52:15.372Z,8.13
2018-09-13T08:53:20.257Z,9.75
2018-09-13T08:54:24.983Z,8.17
2018-09-13T08:55:29.819Z,9.15
2018-09-13T08:56:34.577Z,9.97
2018-09-13T08:57:39.903Z,10.60
2018-09-13T08:58:44.904Z,8.90
2018-09-13T08:59:50.296Z,8.53
2018-09-13T09:00:55.011Z,9.17
2018-09-13T09:01:59.821Z,9.23
2018-09-13T09:03:04.813Z,8.93
2018-09-13T09:04:09.586Z,10.23
2018-09-13T09:05:14.463Z,8.68
2018-09-13T09:06:19.239Z,7.87
2018-09-13T09:07:23.930Z,9.97
2018-09-13T09:08:28.696Z,7.83
2018-09-13T09:09:33.421Z,7.17
2018-09-13T09:10:38.149Z,8.20
2018-09-13T09:11:42.926Z,7.53
2018-09-13T09:12:48.286Z,8.67
2018-09-13T09:13:53.115Z,7.77
2018-09-13T09:14:57.895Z,9.00
2018-09-13T09:16:02.604Z,7.70
2018-09-13T09:17:07.537Z,9.85
2018-09-13T09:18:12.401Z,8.13
2018-09-13T09:19:17.181Z,6.03
2018-09-13T09:20:22.773Z,9.73
2018-09-13T09:21:27.474Z,7.37
2018-09-13T09:22:32.188Z,9.30
2018-09-13T09:23:36.945Z,9.93
2018-09-13T09:24:41.733Z,8.17
2018-09-13T09:25:46.484Z,8.48
2018-09-13T09:26:51.196Z,6.63
2018-09-13T09:27:55.944Z,6.23
2018-09-13T09:29:00.824Z,8.47
2018-09-13T09:30:06.176Z,8.68
2018-09-13T09:31:10.965Z,10.25
2018-09-13T09:32:15.702Z,7.22
2018-09-13T09:33:20.472Z,8.28
2018-09-13T09:34:25.824Z,8.27
2018-09-13T09:35:31.452Z,6.55
2018-09-13T09:36:36.186Z,6.10
2018-09-13T09:37:40.923Z,6.67
2018-09-13T09:38:45.737Z,6.60
2018-09-13T09:39:50.521Z,7.47
2018-09-13T09:40:55.339Z,7.93
2018-09-13T09:42:00.094Z,7.43
2018-09-13T09:43:04.882Z,7.85
2018-09-13T09:44:09.716Z,6.90
2018-09-13T09:45:14.448Z,6.75
2018-09-13T09:46:19.217Z,7.37
2018-09-13T09:47:23.952Z,8.53
2018-09-13T09:48:28.701Z,7.70
2018-09-13T09:49:33.460Z,7.73
2018-09-13T09:50:38.294Z,5.00
2018-09-13T09:51:42.931Z,8.60
2018-09-13T09:52:47.632Z,8.47
2018-09-13T09:53:52.415Z,5.37
2018-09-13T09:54:58.591Z,5.90
2018-09-13T09:56:03.354Z,6.20
2018-09-13T09:57:08.045Z,6.70
2018-09-13T09:58:12.816Z,6.45
2018-09-13T09:59:17.577Z,5.28
2018-09-13T10:02:30.595Z,6.03
2018-09-13T10:03:35.420Z,8.60
2018-09-13T10:04:40.565Z,6.07
2018-09-13T10:05:45.963Z,8.10
2018-09-13T10:06:50.736Z,5.40
2018-09-13T10:07:55.558Z,8.18
2018-09-13T10:09:00.306Z,6.30
2018-09-13T10:10:05.128Z,5.95
2018-09-13T10:11:10.407Z,9.30
2018-09-13T10:12:15.758Z,7.45
2018-09-13T10:13:20.578Z,8.33
2018-09-13T10:14:25.455Z,5.13
2018-09-13T10:15:35.530Z,7.20
2018-09-13T10:16:45.606Z,7.00
2018-09-13T10:17:55.571Z,7.33
2018-09-13T10:19:05.455Z,7.63
2018-09-13T10:20:15.627Z,7.12
2018-09-13T10:21:25.700Z,7.72
2018-09-13T10:22:35.645Z,6.53
2018-09-13T10:23:45.692Z,7.93
2018-09-13T10:24:55.923Z,10.00
2018-09-13T10:26:06.048Z,5.95
2018-09-13T10:27:16.239Z,7.15
2018-09-13T10:28:26.255Z,6.35
2018-09-13T10:29:36.482Z,6.70
2018-09-13T10:30:46.438Z,7.63
2018-09-13T10:31:56.766Z,6.90
2018-09-13T10:33:06.880Z,7.40
2018-09-13T10:34:17.026Z,9.03
2018-09-13T10:35:27.502Z,7.25
2018-09-13T10:36:37.507Z,7.43
2018-09-13T10:37:47.496Z,7.17
2018-09-13T10:38:57.676Z,6.03
2018-09-13T10:40:07.868Z,7.03
2018-09-13T10:41:18.025Z,5.25
2018-09-13T10:42:28.945Z,5.17
2018-09-13T10:43:38.975Z,7.77
2018-09-13T10:44:49.012Z,8.03
2018-09-13T10:45:59.720Z,5.67
2018-09-13T10:47:09.644Z,6.53
2018-09-13T10:48:19.769Z,6.60
2018-09-13T10:49:29.793Z,5.47
2018-09-13T10:50:43.523Z,8.63
2018-09-13T10:51:54.021Z,5.13
2018-09-13T10:53:04.177Z,3.90
2018-09-13T10:54:15.895Z,7.08
2018-09-13T10:55:20.734Z,5.15
2018-09-13T10:56:25.468Z,5.63
2018-09-13T10:57:35.506Z,7.40
2018-09-13T10:58:40.295Z,6.30
2018-09-13T10:59:46.908Z,7.27
2018-09-13T11:00:51.677Z,7.92
2018-09-13T11:01:56.466Z,6.37
2018-09-13T11:03:01.263Z,4.73
2018-09-13T11:04:06.157Z,5.08
2018-09-13T11:05:10.882Z,6.08
2018-09-13T11:06:15.647Z,3.83
2018-09-13T11:07:20.372Z,6.05
2018-09-13T11:08:25.159Z,4.20
2018-09-13T11:09:30.900Z,5.78
2018-09-13T11:10:35.734Z,6.50
2018-09-13T11:11:40.419Z,6.37
2018-09-13T11:12:49.260Z,7.80
2018-09-13T11:14:01.977Z,5.37
2018-09-13T11:15:41.628Z,5.85
2018-09-13T11:16:46.344Z,5.77
2018-09-13T11:17:51.079Z,5.80
2018-09-13T11:18:55.830Z,5.33
2018-09-13T11:20:00.606Z,5.60
2018-09-13T11:21:05.364Z,6.83
2018-09-13T11:22:17.307Z,6.17
2018-09-13T11:23:22.060Z,8.10
2018-09-13T11:24:26.861Z,6.90
2018-09-13T11:25:31.700Z,4.73
2018-09-13T11:26:36.474Z,4.27
2018-09-13T11:27:41.273Z,7.50
2018-09-13T11:28:45.989Z,6.10
2018-09-13T11:29:50.739Z,9.57
2018-09-13T11:31:00.815Z,6.30
2018-09-13T11:32:05.839Z,6.62
2018-09-13T11:33:10.678Z,7.37
2018-09-13T11:34:16.320Z,6.80
2018-09-13T11:35:21.079Z,4.33
2018-09-13T11:36:25.882Z,5.03
2018-09-13T11:37:30.988Z,4.13
2018-09-13T11:38:35.810Z,6.33
2018-09-13T11:39:41.192Z,4.60
2018-09-13T11:40:46.066Z,5.53
2018-09-13T11:41:50.630Z,5.03
2018-09-13T11:42:55.432Z,5.93
2018-09-13T11:44:00.235Z,5.03
2018-09-13T11:45:05.438Z,6.20
2018-09-13T11:46:10.210Z,5.58
2018-09-13T11:47:14.991Z,5.30
2018-09-13T11:48:19.751Z,5.80
2018-09-13T11:49:24.483Z,3.58
2018-09-13T11:50:29.364Z,5.93
2018-09-13T11:51:39.998Z,7.10
2018-09-13T11:52:44.739Z,6.75
2018-09-13T11:53:49.482Z,6.17
2018-09-13T11:54:55.453Z,4.17
2018-09-13T11:56:00.133Z,4.53
2018-09-13T11:57:04.932Z,4.83
2018-09-13T11:58:10.130Z,4.95
2018-09-13T11:59:14.877Z,3.77
2018-09-13T12:00:19.601Z,4.33
2018-09-13T12:01:24.404Z,4.57
2018-09-13T12:02:30.016Z,5.53
2018-09-13T12:03:34.797Z,6.67
2018-09-13T12:04:39.566Z,5.63
2018-09-13T12:05:44.248Z,3.87
2018-09-13T12:06:48.996Z,5.57
2018-09-13T12:07:53.715Z,5.27
2018-09-13T12:08:58.456Z,4.37
2018-09-13T12:10:03.186Z,3.77
2018-09-13T12:11:08.004Z,5.83
2018-09-13T12:12:12.728Z,5.20
2018-09-13T12:13:17.426Z,5.40
2018-09-13T12:14:22.188Z,3.33
2018-09-13T12:15:26.976Z,6.40
2018-09-13T12:16:31.840Z,4.67
2018-09-13T12:17:36.593Z,7.42
2018-09-13T12:18:41.324Z,4.83
2018-09-13T12:19:46.068Z,4.67
2018-09-13T12:20:50.805Z,5.53
2018-09-13T12:21:55.570Z,7.30
2018-09-13T12:23:00.342Z,4.63
2018-09-13T12:24:05.104Z,6.58
2018-09-13T12:25:09.903Z,5.47
2018-09-13T12:26:14.760Z,4.03
2018-09-13T12:27:25.402Z,4.77
2018-09-13T12:28:30.132Z,6.50
2018-09-13T12:29:34.957Z,5.77
2018-09-13T12:30:39.761Z,7.80
2018-09-13T12:31:45.017Z,4.83
2018-09-13T12:32:56.611Z,6.17
2018-09-13T12:34:01.534Z,7.20
2018-09-13T12:35:06.872Z,4.72
2018-09-13T12:36:11.622Z,4.08
2018-09-13T12:37:16.358Z,3.45
2018-09-13T12:38:21.142Z,5.12
2018-09-13T12:39:25.928Z,5.47
2018-09-13T12:40:30.646Z,7.17
2018-09-13T12:41:35.492Z,3.60
2018-09-13T12:42:40.222Z,5.47
2018-09-13T12:43:44.938Z,7.37
2018-09-13T12:44:49.722Z,7.10
2018-09-13T12:45:54.498Z,6.00
2018-09-13T12:46:59.430Z,5.93
2018-09-13T12:48:04.920Z,5.47
2018-09-13T12:49:09.679Z,6.17
2018-09-13T12:50:14.425Z,6.90
2018-09-13T12:51:19.601Z,4.65
2018-09-13T12:52:24.735Z,9.30
2018-09-13T12:53:29.492Z,6.90
2018-09-13T12:54:34.251Z,5.40
2018-09-13T12:55:44.248Z,6.23
2018-09-13T12:56:49.095Z,4.58
2018-09-13T12:57:53.791Z,4.27
2018-09-13T12:58:58.522Z,6.37
2018-09-13T13:00:03.404Z,4.13
2018-09-13T13:01:08.132Z,3.95
2018-09-13T13:02:12.883Z,7.45
2018-09-13T13:03:22.599Z,5.35
2018-09-13T13:04:27.324Z,5.33
2018-09-13T13:05:32.108Z,5.00
2018-09-13T13:06:36.968Z,4.83
2018-09-13T13:07:41.655Z,5.77
2018-09-13T13:08:46.435Z,4.10
2018-09-13T13:10:14.945Z,4.23
2018-09-13T13:12:32.126Z,4.90
2018-09-13T13:13:35.599Z,5.25
2018-09-13T13:14:39.188Z,4.70
2018-09-13T13:15:42.739Z,3.93
2018-09-13T13:16:46.276Z,5.47
2018-09-13T13:17:49.726Z,4.20
2018-09-13T13:18:53.189Z,3.73
2018-09-13T13:19:57.275Z,4.45
2018-09-13T13:21:00.779Z,5.90
2018-09-13T13:22:04.279Z,5.30
2018-09-13T13:23:07.776Z,4.78
2018-09-13T13:24:11.289Z,5.67
2018-09-13T13:25:14.846Z,4.47
2018-09-13T13:26:19.110Z,5.15
2018-09-13T13:27:22.675Z,6.30
2018-09-13T13:28:26.126Z,5.77
2018-09-13T13:29:29.820Z,6.22
2018-09-13T13:30:33.343Z,6.90
2018-09-13T13:31:36.882Z,4.25
2018-09-13T13:32:40.347Z,7.53
2018-09-13T13:33:43.806Z,5.47
2018-09-13T13:34:47.296Z,6.40
2018-09-13T13:35:50.712Z,5.05
2018-09-13T13:36:54.881Z,6.57
2018-09-13T13:37:59.039Z,7.27
2018-09-13T13:39:03.305Z,7.37
2018-09-13T13:40:06.821Z,5.72
2018-09-13T13:41:10.333Z,6.53
2018-09-13T13:42:13.790Z,5.20
2018-09-13T13:43:17.297Z,4.25
2018-09-13T13:44:20.795Z,6.05
2018-09-13T13:45:24.295Z,8.35
2018-09-13T13:46:27.806Z,8.00
2018-09-13T13:47:31.353Z,4.53
2018-09-13T13:48:34.855Z,4.77
2018-09-13T13:49:38.442Z,5.60
2018-09-13T13:50:41.941Z,6.07
2018-09-13T13:51:45.424Z,3.60
2018-09-13T13:52:48.895Z,2.93
2018-09-13T13:53:52.390Z,5.22
2018-09-13T13:54:55.984Z,4.63
2018-09-13T13:55:59.531Z,6.27
2018-09-13T13:57:03.634Z,5.55
2018-09-13T13:58:07.396Z,6.62
2018-09-13T13:59:10.861Z,5.87
2018-09-13T14:00:14.397Z,6.97
2018-09-13T14:01:18.006Z,4.95
2018-09-13T14:02:21.543Z,3.75
2018-09-13T14:03:25.803Z,5.50
2018-09-13T14:04:29.302Z,4.80
2018-09-13T14:05:32.801Z,4.62
2018-09-13T14:06:36.306Z,4.63
2018-09-13T14:07:39.809Z,5.08
2018-09-13T14:08:43.544Z,4.00
2018-09-13T14:09:47.056Z,3.83
2018-09-13T14:10:50.567Z,4.62
2018-09-13T14:11:54.043Z,4.17
2018-09-13T14:12:57.567Z,5.15
2018-09-13T14:14:01.106Z,6.17
2018-09-13T14:15:05.005Z,5.80
2018-09-13T14:16:08.471Z,5.28
2018-09-13T14:17:11.972Z,2.55
2018-09-13T14:18:15.593Z,4.95
2018-09-13T14:19:19.122Z,6.92